Terminal Aerodrome Forecast
Issued by NWS

Home | Current Version | Previous Version | Graphics & Text | Print | Product List | Glossary On
Versions: 1 2 3 4 5 6 7 8 9 10 11 12 13 14 15
043
FTUS43 KFGF 221733
TAFBJI
TAF
KBJI 221733Z 2218/2318 30009KT P6SM OVC025
      TEMPO 2221/2224 4SM -SHRA OVC015
     FM230000 32008KT P6SM OVC030
      TEMPO 2300/2301 4SM -SHRA OVC015
     FM230100 32007KT P6SM VCSH OVC025
     FM230300 32006KT P6SM OVC015
     FM230600 34006KT P6SM OVC008
     FM231300 36008KT P6SM OVC020=

USA.gov is the U.S. government's official web portal to all federal, state and local government web resources and services.